Time;durP1;ratioP1;P1;durP2;ratioP2;P2;SDS_P1;SDS_P2;PMS_P1;PMS_P2;Temp;Humidity;BMP_temperature;BMP_pressure;BME280_temperature;BME280_humidity;BME280_pressure;Samples;Min_cycle;Max_cycle;Signal;HPM_P1;HPM_P2
2023/07/31 00:01:51;;;;;;;36.08;14.65;;;;;;;14.60;100.00;100957.59;5065768;28;20127;-64
2023/07/31 00:04:17;;;;;;;37.00;14.20;;;;;;;14.63;100.00;100947.88;5065578;28;20090;-74
2023/07/31 00:06:42;;;;;;;34.90;13.20;;;;;;;14.60;100.00;100955.81;5066196;28;20033;-71
2023/07/31 00:09:07;;;;;;;35.90;13.68;;;;;;;14.59;100.00;100950.50;5066610;28;20049;-72
2023/07/31 00:11:33;;;;;;;35.15;12.77;;;;;;;14.57;100.00;100963.84;5064214;28;20040;-64
2023/07/31 00:13:58;;;;;;;33.35;12.02;;;;;;;14.58;100.00;100954.09;5067825;28;20028;-64
2023/07/31 00:16:23;;;;;;;32.60;12.10;;;;;;;14.57;100.00;100957.66;5064441;28;20029;-64
2023/07/31 00:18:49;;;;;;;32.28;11.63;;;;;;;14.57;100.00;100953.19;5066357;28;20029;-75
2023/07/31 00:21:14;;;;;;;32.75;12.15;;;;;;;14.56;100.00;100946.13;5065751;28;20035;-64
2023/07/31 00:23:40;;;;;;;32.78;11.27;;;;;;;14.54;100.00;100947.91;5065022;28;20051;-64
2023/07/31 00:26:05;;;;;;;31.98;11.20;;;;;;;14.58;100.00;100956.75;5067052;28;20067;-63
2023/07/31 00:28:30;;;;;;;30.98;10.85;;;;;;;14.58;100.00;100949.66;5064114;28;20025;-64
2023/07/31 00:30:56;;;;;;;30.67;10.75;;;;;;;14.58;100.00;100949.66;5067295;28;20064;-75
2023/07/31 00:33:21;;;;;;;34.47;10.48;;;;;;;14.56;100.00;100947.88;5064653;28;20040;-64
2023/07/31 00:35:48;;;;;;;32.58;11.25;;;;;;;14.56;100.00;100946.13;5065656;28;20037;-64
2023/07/31 00:38:14;;;;;;;31.98;10.85;;;;;;;14.55;100.00;100939.03;5065609;28;20105;-64
2023/07/31 00:40:39;;;;;;;32.40;10.48;;;;;;;14.56;100.00;100954.09;5064909;28;20491;-64
2023/07/31 00:43:04;;;;;;;29.83;10.15;;;;;;;14.54;100.00;100947.91;5066507;28;20491;-64
2023/07/31 00:45:31;;;;;;;30.48;10.43;;;;;;;14.54;100.00;100942.59;5063559;28;20508;-72
2023/07/31 00:47:57;;;;;;;31.27;10.40;;;;;;;14.56;100.00;100943.47;5067121;28;20047;-64
2023/07/31 00:50:24;;;;;;;27.88;9.50;;;;;;;14.54;100.00;100942.59;5064043;28;20480;-64
2023/07/31 00:52:50;;;;;;;32.13;10.88;;;;;;;14.55;100.00;100939.03;5065949;28;20029;-65
2023/07/31 00:55:16;;;;;;;31.65;9.90;;;;;;;14.55;100.00;100933.72;5065046;28;20499;-65
2023/07/31 00:57:42;;;;;;;30.27;9.80;;;;;;;14.53;100.00;100946.13;5064715;28;20033;-68
2023/07/31 01:00:08;;;;;;;29.55;9.98;;;;;;;14.52;100.00;100933.75;5066151;28;20039;-64
2023/07/31 01:02:35;;;;;;;29.65;10.00;;;;;;;14.51;100.00;100931.97;5063737;28;20041;-76
2023/07/31 01:05:01;;;;;;;32.88;10.18;;;;;;;14.51;100.00;100926.66;5066794;28;20029;-64
2023/07/31 01:07:33;;;;;;;31.70;9.50;;;;;;;14.52;100.00;100927.53;5058954;28;20487;-64
2023/07/31 01:10:09;;;;;;;27.47;8.53;;;;;;;14.51;100.00;100926.66;5058218;28;20053;-64
2023/07/31 01:12:38;;;;;;;30.15;9.60;;;;;;;14.48;100.00;100932.03;5060820;28;20634;-74
2023/07/31 01:15:10;;;;;;;28.55;8.27;;;;;;;14.47;100.00;100935.56;5066276;28;20028;-65
2023/07/31 01:17:36;;;;;;;;;;;;;;;14.44;100.00;100924.97;5063892;28;20182;-74
2023/07/31 01:20:05;;;;;;;27.33;8.68;;;;;;;14.43;100.00;100926.75;5066720;28;19981;-64
2023/07/31 01:22:40;;;;;;;26.65;8.02;;;;;;;14.42;100.00;100919.66;5059174;28;20054;-64
2023/07/31 01:25:08;;;;;;;28.63;8.80;;;;;;;14.41;100.00;100923.22;5060342;28;20033;-75
2023/07/31 01:27:48;;;;;;;30.27;8.98;;;;;;;14.43;100.00;100925.84;5065975;28;20464;-64
2023/07/31 01:30:22;;;;;;;29.40;8.75;;;;;;;14.41;100.00;100923.22;5064337;28;20025;-64
2023/07/31 01:32:48;;;;;;;26.88;8.48;;;;;;;14.39;100.00;100937.44;5064184;28;20052;-64
2023/07/31 01:35:14;;;;;;;27.38;8.05;;;;;;;14.39;100.00;100926.81;5064013;28;20029;-64
2023/07/31 01:37:39;;;;;;;30.05;8.70;;;;;;;14.37;100.00;100928.59;5064962;28;20020;-64
2023/07/31 01:40:06;;;;;;;28.27;8.52;;;;;;;14.38;100.00;100933.88;5062955;28;20036;-64
2023/07/31 01:42:32;;;;;;;30.80;8.50;;;;;;;14.39;100.00;100924.16;5065882;28;20040;-64
2023/07/31 01:44:57;;;;;;;26.38;8.38;;;;;;;14.34;100.00;100921.50;5057421;28;20032;-64
2023/07/31 01:47:23;;;;;;;26.13;7.85;;;;;;;14.34;100.00;100921.50;5065275;28;20326;-63
2023/07/31 01:49:49;;;;;;;28.55;8.45;;;;;;;14.36;100.00;100916.16;5063550;28;20397;-63
2023/07/31 01:52:14;;;;;;;28.58;8.38;;;;;;;14.36;100.00;100910.84;5063817;28;20033;-63
2023/07/31 01:54:39;;;;;;;26.35;7.93;;;;;;;14.35;100.00;100915.31;5064913;28;20029;-67
2023/07/31 01:57:05;;;;;;;27.48;7.78;;;;;;;14.35;100.00;100909.13;5062473;28;20029;-63
2023/07/31 01:59:30;;;;;;;24.70;7.70;;;;;;;14.33;100.00;100916.22;5065717;28;20020;-63
2023/07/31 02:01:56;;;;;;;25.35;7.82;;;;;;;14.35;100.00;100899.34;5062207;28;20476;-63
2023/07/31 02:04:21;;;;;;;25.42;7.78;;;;;;;14.37;100.00;100896.66;5064534;28;20542;-64
2023/07/31 02:06:46;;;;;;;25.70;7.90;;;;;;;14.28;100.00;100893.22;5063983;28;20395;-64
2023/07/31 02:09:12;;;;;;;25.98;7.63;;;;;;;14.30;100.00;100894.09;5063034;28;20483;-64
2023/07/31 02:11:37;;;;;;;27.25;7.88;;;;;;;14.30;100.00;100883.44;5064644;28;20028;-63
2023/07/31 02:14:02;;;;;;;26.20;8.13;;;;;;;14.27;100.00;100882.56;5062076;28;20108;-64
2023/07/31 02:16:28;;;;;;;26.65;7.80;;;;;;;14.24;100.00;100882.63;5058020;28;20037;-65
2023/07/31 02:18:53;;;;;;;28.67;8.13;;;;;;;14.25;100.00;100882.59;5064719;28;20375;-64
2023/07/31 02:21:18;;;;;;;25.90;7.72;;;;;;;14.22;100.00;100877.31;5062851;28;20052;-63
2023/07/31 02:23:44;;;;;;;26.55;8.52;;;;;;;14.22;100.00;100879.09;5063081;28;20032;-63
2023/07/31 02:26:09;;;;;;;27.50;8.13;;;;;;;14.23;100.00;100867.59;5064436;28;20434;-63
2023/07/31 02:28:34;;;;;;;25.92;8.35;;;;;;;14.23;100.00;100872.91;5061986;28;20083;-63
2023/07/31 02:31:00;;;;;;;24.77;7.63;;;;;;;14.22;100.00;100863.16;5064968;28;20025;-64
2023/07/31 02:33:25;;;;;;;25.90;7.80;;;;;;;14.19;100.00;100866.72;5062061;28;20033;-64
2023/07/31 02:35:50;;;;;;;27.58;8.05;;;;;;;14.23;100.00;100863.13;5063757;28;20035;-63
2023/07/31 02:38:16;;;;;;;25.05;7.95;;;;;;;14.25;100.00;100853.34;5062993;28;20033;-63
2023/07/31 02:40:41;;;;;;;25.15;7.97;;;;;;;14.20;100.00;100851.63;5062701;28;20114;-63
2023/07/31 02:43:07;;;;;;;26.75;8.13;;;;;;;14.23;100.00;100859.59;5064050;28;20031;-67
2023/07/31 02:45:32;;;;;;;27.17;7.97;;;;;;;14.22;100.00;100849.88;5061339;28;20037;-63
2023/07/31 02:47:58;;;;;;;26.83;7.97;;;;;;;14.22;100.00;100858.72;5057293;28;20060;-64
2023/07/31 02:50:23;;;;;;;25.92;8.15;;;;;;;14.19;100.00;100855.22;5063916;28;20020;-64
2023/07/31 02:52:49;;;;;;;24.95;8.20;;;;;;;14.21;100.00;100854.31;5062567;28;20545;-64
2023/07/31 02:55:14;;;;;;;25.25;8.30;;;;;;;14.22;100.00;100847.19;5062791;28;20033;-64
2023/07/31 02:57:39;;;;;;;26.55;7.75;;;;;;;14.22;100.00;100836.56;5063751;28;20025;-64
2023/07/31 03:00:06;;;;;;;25.48;7.88;;;;;;;14.20;100.00;100852.53;5061268;28;20476;-64
2023/07/31 03:02:32;;;;;;;25.10;8.10;;;;;;;14.19;100.00;100849.91;5064612;28;20472;-64
2023/07/31 03:04:57;;;;;;;25.15;7.40;;;;;;;14.22;100.00;100839.22;5061180;28;20040;-63
2023/07/31 03:07:22;;;;;;;23.73;7.25;;;;;;;14.23;100.00;100849.84;5063834;28;20375;-64
2023/07/31 03:09:48;;;;;;;25.83;8.05;;;;;;;14.22;100.00;100840.09;5062156;28;20186;-66
2023/07/31 03:12:13;;;;;;;24.27;7.43;;;;;;;14.20;100.00;100836.59;5062309;28;20083;-67
2023/07/31 03:14:38;;;;;;;24.05;7.22;;;;;;;14.27;100.00;100840.03;5063768;28;20025;-63
2023/07/31 03:17:04;;;;;;;25.25;7.38;;;;;;;14.25;100.00;100848.03;5061184;28;20033;-64
2023/07/31 03:19:33;;;;;;;25.52;7.57;;;;;;;14.28;100.00;100839.16;5064438;28;20113;-79
2023/07/31 03:21:59;;;;;;;24.27;7.88;;;;;;;14.31;100.00;100831.13;5060827;28;20025;-64
2023/07/31 03:24:24;;;;;;;25.23;7.40;;;;;;;14.37;100.00;100830.19;5063717;28;20033;-72
2023/07/31 03:26:50;;;;;;;25.75;7.95;;;;;;;14.35;100.00;100829.34;5061908;28;20162;-65
2023/07/31 03:29:15;;;;;;;23.20;7.50;;;;;;;14.39;100.00;100834.59;5062519;28;20025;-66
2023/07/31 03:31:40;;;;;;;25.02;7.32;;;;;;;14.48;100.00;100820.31;5063515;28;20543;-68
2023/07/31 03:34:06;;;;;;;25.48;7.47;;;;;;;14.48;100.00;100815.88;5062752;28;20459;-66
2023/07/31 03:36:31;;;;;;;24.15;7.10;;;;;;;14.56;100.00;100810.47;5068447;28;20025;-64
2023/07/31 03:38:57;;;;;;;24.73;6.63;;;;;;;14.57;100.00;100812.22;5064996;28;20032;-80
2023/07/31 03:41:22;;;;;;;25.50;6.90;;;;;;;14.63;100.00;100804.22;5067244;28;20037;-64
2023/07/31 03:43:55;;;;;;;24.90;6.90;;;;;;;14.65;100.00;100820.16;5066437;28;20033;-65
2023/07/31 03:46:22;;;;;;;23.13;6.68;;;;;;;14.72;100.00;100807.63;5067144;28;20136;-73
2023/07/31 03:48:47;;;;;;;23.50;7.20;;;;;;;14.72;100.00;100794.31;5066495;28;20386;-64
2023/07/31 03:51:13;;;;;;;25.20;7.50;;;;;;;14.73;100.00;100799.63;5066009;28;20033;-70
2023/07/31 03:53:38;;;;;;;22.08;7.03;;;;;;;14.78;100.00;100796.91;5067325;28;20108;-63
2023/07/31 03:56:04;;;;;;;23.75;6.60;;;;;;;14.86;100.00;100794.16;5064482;28;20027;-63
2023/07/31 03:58:29;;;;;;;23.35;7.10;;;;;;;14.85;100.00;100795.03;5060541;28;20376;-73
2023/07/31 04:00:54;;;;;;;23.15;6.93;;;;;;;14.90;100.00;100779.91;5067245;28;20119;-67
2023/07/31 04:03:20;;;;;;;23.50;6.82;;;;;;;14.89;100.00;100779.00;5065513;28;20072;-64
2023/07/31 04:05:45;;;;;;;24.30;6.93;;;;;;;14.87;100.00;100775.50;5066116;28;20021;-76
2023/07/31 04:08:10;;;;;;;22.15;6.38;;;;;;;14.88;100.00;100779.03;5066878;28;20082;-63
2023/07/31 04:10:36;;;;;;;23.33;6.70;;;;;;;14.94;100.00;100790.47;5064337;28;20049;-82
2023/07/31 04:13:01;;;;;;;22.83;6.75;;;;;;;15.01;100.00;100771.75;5067934;28;20037;-66
2023/07/31 04:15:26;;;;;;;23.33;7.05;;;;;;;14.99;100.00;100764.66;5064445;28;20021;-64
2023/07/31 04:17:52;;;;;;;22.90;6.57;;;;;;;15.02;100.00;100763.72;5066952;28;20529;-64
2023/07/31 04:20:17;;;;;;;26.40;6.68;;;;;;;15.07;100.00;100763.66;5065685;28;20437;-69
2023/07/31 04:22:43;;;;;;;25.50;6.82;;;;;;;15.10;100.00;100767.16;5065000;28;20037;-64
2023/07/31 04:25:08;;;;;;;24.15;6.80;;;;;;;15.15;100.00;100756.44;5067033;28;20429;-63
2023/07/31 04:27:33;;;;;;;23.40;6.88;;;;;;;15.15;100.00;100754.66;5064200;28;20025;-63
2023/07/31 04:29:59;;;;;;;23.73;6.60;;;;;;;15.16;100.00;100759.06;5067268;28;20028;-63
2023/07/31 04:32:24;;;;;;;22.58;6.97;;;;;;;15.25;100.00;100741.19;5064708;28;20033;-65
2023/07/31 04:34:49;;;;;;;25.42;7.28;;;;;;;15.26;100.00;100757.16;5065785;28;20024;-64
2023/07/31 04:37:15;;;;;;;22.27;6.45;;;;;;;15.29;100.00;100750.88;5065635;28;20028;-63
2023/07/31 04:39:40;;;;;;;22.10;6.82;;;;;;;15.25;100.00;100739.41;5064785;28;20071;-63
2023/07/31 04:42:05;;;;;;;22.63;6.45;;;;;;;15.19;100.00;100750.16;5066732;28;20032;-63
2023/07/31 04:44:31;;;;;;;23.50;7.38;;;;;;;15.26;100.00;100742.94;5063675;28;20033;-64
2023/07/31 04:46:56;;;;;;;25.63;7.38;;;;;;;15.19;100.00;100730.63;5066533;28;20031;-67
2023/07/31 04:49:22;;;;;;;25.35;7.22;;;;;;;15.21;100.00;100732.38;5063194;28;20028;-64
2023/07/31 04:51:47;;;;;;;21.45;6.90;;;;;;;15.25;100.00;100731.41;5065410;28;20036;-63
2023/07/31 04:54:14;;;;;;;22.48;7.20;;;;;;;15.28;100.00;100736.69;5065566;28;20025;-63
2023/07/31 04:56:40;;;;;;;24.05;7.47;;;;;;;15.33;100.00;100731.28;5064109;28;20472;-63
2023/07/31 04:59:06;;;;;;;22.55;7.05;;;;;;;15.34;100.00;100733.91;5066726;28;20040;-71
2023/07/31 05:01:31;;;;;;;23.42;7.30;;;;;;;15.35;100.00;100724.16;5063135;28;20029;-63
2023/07/31 05:03:57;;;;;;;22.23;6.85;;;;;;;15.38;100.00;100720.53;5066322;28;20028;-68
2023/07/31 05:06:22;;;;;;;22.35;7.18;;;;;;;15.33;100.00;100726.84;5064297;28;20032;-65
2023/07/31 05:08:47;;;;;;;25.10;7.88;;;;;;;15.15;100.00;100727.16;5064786;28;20486;-65
2023/07/31 05:11:14;;;;;;;24.88;8.23;;;;;;;15.01;100.00;100723.84;5065122;28;20067;-65
2023/07/31 05:13:39;;;;;;;25.08;8.50;;;;;;;14.94;100.00;100717.72;5063800;28;20044;-70
2023/07/31 05:16:04;;;;;;;22.92;8.10;;;;;;;14.84;100.00;100719.66;5066483;28;20032;-65
2023/07/31 05:18:30;;;;;;;23.58;8.63;;;;;;;14.84;100.00;100722.31;5059166;28;20523;-65
2023/07/31 05:20:55;;;;;;;23.10;8.20;;;;;;;14.82;100.00;100719.69;5065853;28;20047;-65
2023/07/31 05:23:20;;;;;;;23.23;8.60;;;;;;;14.77;100.00;100710.88;5064061;28;20039;-65
2023/07/31 05:25:46;;;;;;;25.42;8.95;;;;;;;14.78;100.00;100712.66;5064452;28;20108;-65
2023/07/31 05:28:12;;;;;;;24.38;8.27;;;;;;;14.80;100.00;100721.47;5065302;28;20120;-65
2023/07/31 05:30:37;;;;;;;24.65;9.27;;;;;;;14.79;100.00;100729.47;5063101;28;20492;-65
2023/07/31 05:33:03;;;;;;;25.95;9.02;;;;;;;14.79;100.00;100725.06;5066619;28;20041;-65
2023/07/31 05:35:28;;;;;;;23.88;8.52;;;;;;;14.78;100.00;100722.38;5062987;28;20119;-72
2023/07/31 05:37:53;;;;;;;22.67;8.07;;;;;;;14.79;100.00;100732.13;5065133;28;20029;-65
2023/07/31 05:40:19;;;;;;;23.30;8.40;;;;;;;14.77;100.00;100725.97;5064281;28;20032;-65
2023/07/31 05:42:44;;;;;;;23.85;8.90;;;;;;;14.76;100.00;100725.06;5062495;28;20108;-65
2023/07/31 05:45:10;;;;;;;22.70;8.05;;;;;;;14.73;100.00;100719.81;5058490;28;20388;-66
2023/07/31 05:47:35;;;;;;;24.10;8.80;;;;;;;14.73;100.00;100718.94;5054294;28;20120;-66
2023/07/31 05:50:01;;;;;;;22.13;7.30;;;;;;;14.74;100.00;100710.94;5058095;28;20021;-69
2023/07/31 05:52:26;;;;;;;23.48;7.85;;;;;;;14.72;100.00;100706.53;5057440;28;20082;-70
2023/07/31 05:54:51;;;;;;;22.20;7.13;;;;;;;14.73;100.00;100709.16;5059188;28;20027;-70
2023/07/31 05:57:17;;;;;;;21.80;7.25;;;;;;;14.77;100.00;100718.00;5056798;28;20029;-75
2023/07/31 05:59:42;;;;;;;22.75;7.53;;;;;;;14.75;100.00;100706.47;5056201;28;20120;-67
2023/07/31 06:02:08;;;;;;;21.92;6.85;;;;;;;14.76;100.00;100713.56;5057983;28;20392;-78
2023/07/31 06:04:33;;;;;;;20.90;6.88;;;;;;;14.76;100.00;100701.13;5056570;28;20033;-77
2023/07/31 06:07:00;;;;;;;20.85;6.85;;;;;;;14.75;100.00;100703.81;5057039;28;20070;-80
2023/07/31 06:09:25;;;;;;;21.58;7.28;;;;;;;14.78;100.00;100704.66;5057653;28;20147;-75
2023/07/31 06:11:51;;;;;;;20.88;6.75;;;;;;;14.81;100.00;100704.63;5056855;28;20491;-69
2023/07/31 06:14:17;;;;;;;20.85;6.88;;;;;;;14.79;100.00;100698.44;5058648;28;20033;-77
2023/07/31 06:16:43;;;;;;;19.20;6.70;;;;;;;14.77;100.00;100686.06;5056589;28;20017;-72
2023/07/31 06:19:09;;;;;;;19.75;6.32;;;;;;;14.79;100.00;100697.56;5055594;28;20025;-74
2023/07/31 06:21:37;;;;;;;19.70;6.65;;;;;;;14.77;100.00;100678.94;5057514;28;20032;-81
2023/07/31 06:24:02;;;;;;;20.48;7.40;;;;;;;14.80;100.00;100688.69;5058218;28;20111;-82
2023/07/31 06:26:28;;;;;;;20.50;7.10;;;;;;;14.86;100.00;100685.03;5058532;28;20512;-80
2023/07/31 06:28:53;;;;;;;20.05;7.22;;;;;;;14.88;100.00;100694.75;5061837;28;20384;-79
2023/07/31 06:31:22;;;;;;;20.98;7.72;;;;;;;14.89;100.00;100693.84;5063942;28;20033;-77
2023/07/31 06:33:48;;;;;;;21.20;7.32;;;;;;;14.93;100.00;100692.88;5062645;28;20036;-76
2023/07/31 06:36:13;;;;;;;20.80;7.88;;;;;;;14.94;100.00;100676.03;5063061;28;20033;-80
2023/07/31 06:38:38;;;;;;;21.45;8.52;;;;;;;14.96;100.00;100689.31;5063248;28;20029;-70
2023/07/31 06:41:04;;;;;;;22.10;8.75;;;;;;;14.98;100.00;100679.50;5062774;28;20495;-78
2023/07/31 06:43:29;;;;;;;21.20;8.77;;;;;;;15.01;100.00;100682.13;5063795;28;20115;-75
2023/07/31 06:45:54;;;;;;;21.50;8.82;;;;;;;15.00;100.00;100685.69;5061487;28;20037;-75
2023/07/31 06:48:20;;;;;;;21.05;7.95;;;;;;;14.99;100.00;100674.16;5064517;28;20008;-70
2023/07/31 06:50:45;;;;;;;21.73;8.43;;;;;;;14.97;100.00;100675.97;5061421;28;20033;-71
2023/07/31 06:53:10;;;;;;;20.65;8.07;;;;;;;14.97;100.00;100660.00;5063649;28;20025;-75
2023/07/31 06:55:36;;;;;;;21.92;8.20;;;;;;;14.95;100.00;100669.78;5061555;28;20037;-71
2023/07/31 06:58:01;;;;;;;21.05;8.07;;;;;;;14.98;100.00;100675.09;5062553;28;20021;-82
2023/07/31 07:00:27;;;;;;;21.30;7.85;;;;;;;14.98;100.00;100666.19;5063962;28;20466;-75
2023/07/31 07:02:52;;;;;;;22.30;8.45;;;;;;;14.98;100.00;100656.44;5060955;28;20055;-75
2023/07/31 07:05:18;;;;;;;21.48;8.60;;;;;;;15.02;100.00;100669.69;5064410;28;20032;-75
2023/07/31 07:07:44;;;;;;;21.20;8.27;;;;;;;15.05;100.00;100667.84;5060803;28;20542;-73
2023/07/31 07:10:09;;;;;;;21.98;8.13;;;;;;;15.13;100.00;100659.72;5062682;28;20079;-75
2023/07/31 07:12:35;;;;;;;22.17;8.18;;;;;;;15.13;100.00;100665.06;5060397;28;20037;-78
2023/07/31 07:15:01;;;;;;;21.40;7.82;;;;;;;15.14;100.00;100657.06;5060773;28;20055;-78
2023/07/31 07:17:32;;;;;;;21.25;7.65;;;;;;;15.12;100.00;100650.00;5064063;28;20032;-78
2023/07/31 07:19:57;;;;;;;21.00;7.82;;;;;;;15.11;100.00;100656.22;5060603;28;20049;-78
2023/07/31 07:22:23;;;;;;;21.40;7.38;;;;;;;15.12;100.00;100644.69;5063082;28;20037;-78
2023/07/31 07:24:49;;;;;;;20.45;7.85;;;;;;;15.09;100.00;100650.94;5062332;28;20422;-77
2023/07/31 07:27:14;;;;;;;20.45;7.90;;;;;;;15.10;100.00;100657.13;5062019;28;20025;-78
2023/07/31 07:29:40;;;;;;;22.17;8.20;;;;;;;15.10;100.00;100642.03;5063323;28;20515;-74
2023/07/31 07:32:05;;;;;;;22.75;8.77;;;;;;;15.10;100.00;100646.47;5060913;28;20029;-77
2023/07/31 07:34:31;;;;;;;20.92;8.18;;;;;;;15.09;100.00;100647.41;5064175;28;20021;-72
2023/07/31 07:36:56;;;;;;;22.30;9.38;;;;;;;15.13;100.00;100638.44;5060848;28;20087;-75
2023/07/31 07:39:21;;;;;;;21.25;8.60;;;;;;;15.11;100.00;100659.75;5063077;28;20369;-73
2023/07/31 07:41:47;;;;;;;22.88;9.45;;;;;;;15.10;100.00;100658.03;5061848;28;20035;-66
2023/07/31 07:44:14;;;;;;;22.42;9.25;;;;;;;15.12;100.00;100660.66;5062990;28;20029;-66
2023/07/31 07:46:39;;;;;;;23.35;9.35;;;;;;;15.13;100.00;100649.06;5062090;28;20379;-79
2023/07/31 07:49:04;;;;;;;23.55;9.77;;;;;;;15.16;100.00;100641.94;5061782;28;20024;-80
2023/07/31 07:51:31;;;;;;;23.45;9.80;;;;;;;15.22;100.00;100654.25;5063078;28;20033;-80
2023/07/31 07:53:59;;;;;;;24.42;10.38;;;;;;;15.20;100.00;100657.84;5061564;28;20104;-79
2023/07/31 07:56:26;;;;;;;23.48;10.32;;;;;;;15.18;100.00;100646.34;5062993;28;20032;-78
2023/07/31 07:58:51;;;;;;;22.50;9.05;;;;;;;15.15;100.00;100660.59;5061106;28;20057;-77
2023/07/31 08:01:17;;;;;;;24.45;10.20;;;;;;;15.14;100.00;100669.47;5063766;28;20056;-67
2023/07/31 08:03:42;;;;;;;23.63;9.75;;;;;;;15.09;100.00;100647.41;5060417;28;20059;-67
2023/07/31 08:06:09;;;;;;;24.67;10.98;;;;;;;15.16;100.00;100647.25;5063159;28;20482;-66
2023/07/31 08:08:38;;;;;;;24.00;10.90;;;;;;;15.14;100.00;100658.84;5061545;28;20028;-67
2023/07/31 08:11:03;;;;;;;25.13;11.52;;;;;;;15.16;100.00;100644.59;5062040;28;20365;-67
2023/07/31 08:13:29;;;;;;;25.20;11.32;;;;;;;15.15;100.00;100641.97;5062410;28;20024;-66
2023/07/31 08:15:54;;;;;;;25.15;10.82;;;;;;;15.23;100.00;100645.38;5061038;28;20025;-66
2023/07/31 08:18:20;;;;;;;23.92;10.55;;;;;;;15.23;100.00;100642.72;5063886;28;20035;-66
2023/07/31 08:20:46;;;;;;;23.85;9.95;;;;;;;15.20;100.00;100640.06;5063141;28;20104;-66
2023/07/31 08:23:11;;;;;;;22.88;9.93;;;;;;;15.14;100.00;100642.84;5067063;28;20471;-66
2023/07/31 08:25:37;;;;;;;22.83;9.70;;;;;;;15.12;100.00;100634.03;5064893;28;20036;-66
2023/07/31 08:28:03;;;;;;;24.45;9.90;;;;;;;15.14;100.00;100642.84;5065908;28;20476;-67
2023/07/31 08:30:29;;;;;;;23.88;10.70;;;;;;;15.10;100.00;100649.13;5065951;28;20044;-67
2023/07/31 08:32:54;;;;;;;23.52;10.77;;;;;;;15.12;100.00;100644.69;5064592;28;20025;-70
2023/07/31 08:35:20;;;;;;;24.55;11.18;;;;;;;15.22;100.00;100646.28;5067226;28;20024;-68
2023/07/31 08:37:45;;;;;;;24.80;10.18;;;;;;;15.18;100.00;100654.34;5060313;28;20100;-67
2023/07/31 08:40:10;;;;;;;25.35;11.07;;;;;;;15.18;100.00;100641.03;5059660;28;20108;-76
2023/07/31 08:42:56;;;;;;;23.95;10.90;;;;;;;15.19;100.00;100648.09;5062997;28;20495;-65
2023/07/31 08:45:21;;;;;;;24.55;10.55;;;;;;;15.12;100.00;100647.34;5060080;28;20479;-73
2023/07/31 08:47:49;;;;;;;25.42;11.00;;;;;;;15.14;100.00;100648.19;5064471;28;20028;-74
2023/07/31 08:50:17;;;;;;;26.20;11.40;;;;;;;15.08;100.00;100640.31;5059405;28;20388;-75
2023/07/31 08:52:43;;;;;;;25.02;11.13;;;;;;;15.12;100.00;100636.69;5066926;28;20480;-69
2023/07/31 08:55:09;;;;;;;25.85;11.35;;;;;;;15.11;100.00;100633.13;5063781;28;20035;-76
2023/07/31 08:57:36;;;;;;;25.15;11.63;;;;;;;15.17;100.00;100634.81;5062548;28;20032;-70
2023/07/31 09:00:03;;;;;;;25.33;11.32;;;;;;;15.21;100.00;100631.19;5065420;28;20021;-70
2023/07/31 09:02:34;;;;;;;24.40;11.15;;;;;;;15.22;100.00;100645.38;5064799;28;20033;-76
2023/07/31 09:05:02;;;;;;;26.75;11.40;;;;;;;15.25;100.00;100645.34;5064908;28;20118;-69
2023/07/31 09:07:29;;;;;;;26.17;11.50;;;;;;;15.28;100.00;100642.63;5063845;28;20138;-76
2023/07/31 09:09:54;;;;;;;25.60;11.45;;;;;;;15.29;100.00;100647.91;5064197;28;20052;-69
2023/07/31 09:12:20;;;;;;;25.05;11.52;;;;;;;15.33;100.00;100643.41;5067571;28;20033;-69
2023/07/31 09:14:47;;;;;;;24.55;10.90;;;;;;;15.38;100.00;100638.88;5060006;28;20051;-74
2023/07/31 09:17:12;;;;;;;26.50;11.50;;;;;;;15.40;100.00;100633.53;5063295;28;20037;-68
2023/07/31 09:19:38;;;;;;;26.27;11.00;;;;;;;15.40;100.00;100631.72;5066209;28;20025;-73
2023/07/31 09:22:04;;;;;;;25.48;10.70;;;;;;;15.39;100.00;100637.09;5062994;28;20036;-70
2023/07/31 09:24:32;;;;;;;23.92;10.95;;;;;;;15.35;100.00;100660.25;5065688;28;20025;-75
2023/07/31 09:26:59;;;;;;;24.77;10.23;;;;;;;15.43;100.00;100626.34;5063313;28;20112;-78
2023/07/31 09:29:27;;;;;;;25.70;10.23;;;;;;;15.44;100.00;100627.22;5064954;28;20481;-76
2023/07/31 09:31:53;;;;;;;24.50;11.00;;;;;;;15.48;100.00;100628.94;5063278;28;20036;-69
2023/07/31 09:34:19;;;;;;;23.80;10.52;;;;;;;15.53;100.00;100627.03;5063819;28;20033;-74
2023/07/31 09:36:47;;;;;;;23.60;10.52;;;;;;;15.62;100.00;100620.66;5065572;28;20036;-67
2023/07/31 09:39:14;;;;;;;24.17;10.23;;;;;;;15.62;100.00;100624.19;5062728;28;20028;-67
2023/07/31 09:41:42;;;;;;;24.02;10.27;;;;;;;15.69;100.00;100617.81;5062386;28;20029;-66
2023/07/31 09:44:07;;;;;;;23.23;10.13;;;;;;;15.77;100.00;100620.34;5066096;28;20479;-75
2023/07/31 09:46:35;;;;;;;23.45;9.82;;;;;;;15.80;100.00;100608.75;5063305;28;20025;-69
2023/07/31 09:49:11;;;;;;;23.15;9.20;;;;;;;15.79;100.00;100612.38;5065267;28;20111;-68
2023/07/31 09:51:38;;;;;;;23.50;9.68;;;;;;;15.86;100.00;100603.31;5063785;28;20036;-73
2023/07/31 09:54:14;;;;;;;23.95;9.00;;;;;;;15.88;100.00;100609.50;5064864;28;20029;-68
2023/07/31 09:56:45;;;;;;;21.27;8.80;;;;;;;15.91;100.00;100597.91;5063985;28;20029;-69
2023/07/31 09:59:13;;;;;;;20.70;8.63;;;;;;;15.88;100.00;100596.16;5063846;28;20029;-69
2023/07/31 10:01:40;;;;;;;20.38;8.05;;;;;;;15.94;100.00;100611.16;5063657;28;20021;-66
2023/07/31 10:04:08;;;;;;;22.08;8.65;;;;;;;15.92;100.00;100611.19;5064246;28;20017;-71
2023/07/31 10:06:35;;;;;;;21.02;8.27;;;;;;;15.94;100.00;100606.69;5062722;28;20070;-66
2023/07/31 10:09:13;;;;;;;21.38;8.60;;;;;;;16.00;100.00;100606.56;5064845;28;20029;-68
2023/07/31 10:11:43;;;;;;;20.85;7.78;;;;;;;16.04;100.00;100600.25;5063565;28;20387;-75
2023/07/31 10:14:10;;;;;;;20.65;7.78;;;;;;;16.21;100.00;100594.53;5061411;28;20025;-74
2023/07/31 10:16:38;;;;;;;20.40;7.45;;;;;;;16.46;100.00;100593.09;5066252;28;20028;-76
2023/07/31 10:19:04;;;;;;;20.77;7.40;;;;;;;16.56;100.00;100581.28;5064023;28;20125;-77
2023/07/31 10:21:34;;;;;;;19.95;6.97;;;;;;;16.53;100.00;100589.38;5063405;28;20384;-72
2023/07/31 10:24:02;;;;;;;19.80;6.90;;;;;;;16.58;100.00;100592.78;5063192;28;20033;-70
2023/07/31 10:26:29;;;;;;;19.83;6.55;;;;;;;16.60;100.00;100584.75;5062274;28;20046;-65
2023/07/31 10:28:54;;;;;;;19.02;6.30;;;;;;;16.61;100.00;100581.16;5062620;28;20033;-69
2023/07/31 10:31:21;;;;;;;19.50;6.63;;;;;;;16.66;100.00;100588.16;5064476;28;20040;-69
2023/07/31 10:33:47;;;;;;;18.80;6.50;;;;;;;16.74;100.00;100586.13;5061615;28;20033;-72
2023/07/31 10:36:21;;;;;;;18.23;6.20;;;;;;;16.71;100.00;100594.22;5064662;28;20033;-66
2023/07/31 10:38:52;;;;;;;20.00;6.57;;;;;;;16.72;100.00;100587.97;5057787;28;20025;-72
2023/07/31 10:41:18;;;;;;;18.88;6.15;;;;;;;16.69;100.00;100581.88;5060342;28;20020;-70
2023/07/31 10:43:47;;;;;;;18.33;5.75;;;;;;;16.70;100.00;100589.84;5061679;28;20434;-66
2023/07/31 10:46:13;;;;;;;18.90;5.70;;;;;;;16.70;100.00;100592.50;5064601;28;20102;-69
2023/07/31 10:48:41;;;;;;;20.33;6.68;;;;;;;16.72;100.00;100589.78;5061537;28;20424;-71
2023/07/31 10:51:16;;;;;;;18.95;6.10;;;;;;;16.85;100.00;100590.34;5064787;28;20032;-67
2023/07/31 10:53:41;;;;;;;18.48;5.88;;;;;;;16.95;100.00;100583.00;5058067;28;20041;-67
2023/07/31 10:56:13;;;;;;;18.67;5.80;;;;;;;16.94;100.00;100566.13;5057285;28;20082;-66
2023/07/31 10:58:38;;;;;;;18.83;5.80;;;;;;;16.87;100.00;100589.41;5064568;28;20035;-75
2023/07/31 11:01:05;;;;;;;19.92;6.30;;;;;;;16.84;100.00;100585.94;5052548;28;20025;-66
2023/07/31 11:03:46;;;;;;;18.88;6.25;;;;;;;16.96;100.00;100563.41;5055198;28;20360;-69